createdAt,value
2019-03-28T00:00:21.999Z,1043.55
2019-03-28T00:01:21.981Z,1043.59
2019-03-28T00:02:21.974Z,1043.59
2019-03-28T00:03:21.960Z,1043.57
2019-03-28T00:04:21.950Z,1043.55
2019-03-28T00:05:21.939Z,1043.53
2019-03-28T00:06:21.937Z,1043.49
2019-03-28T00:07:24.179Z,1043.48
2019-03-28T00:08:21.913Z,1043.47
2019-03-28T00:09:21.897Z,1043.46
2019-03-28T00:10:21.887Z,1043.45
2019-03-28T00:11:21.884Z,1043.47
2019-03-28T00:12:21.866Z,1043.46
2019-03-28T00:13:21.859Z,1043.42
2019-03-28T00:14:21.852Z,1043.4
2019-03-28T00:15:21.835Z,1043.47
2019-03-28T00:16:21.829Z,1043.43
2019-03-28T00:17:21.814Z,1043.47
2019-03-28T00:18:22.010Z,1043.4
2019-03-28T00:19:21.793Z,1043.4
2019-03-28T00:20:21.783Z,1043.42
2019-03-28T00:21:21.771Z,1043.41
2019-03-28T00:22:21.767Z,1043.45
2019-03-28T00:23:21.756Z,1043.43
2019-03-28T00:24:22.271Z,1043.41
2019-03-28T00:25:21.731Z,1043.43
2019-03-28T00:26:29.787Z,1043.45
2019-03-28T00:27:21.714Z,1043.4
2019-03-28T00:28:21.702Z,1043.41
2019-03-28T00:29:21.693Z,1043.38
2019-03-28T00:30:21.679Z,1043.35
2019-03-28T00:31:21.673Z,1043.38
2019-03-28T00:32:21.663Z,1043.4
2019-03-28T00:33:21.653Z,1043.37
2019-03-28T00:34:21.637Z,1043.39
2019-03-28T00:35:21.631Z,1043.4
2019-03-28T00:36:21.621Z,1043.38
2019-03-28T00:37:21.611Z,1043.37
2019-03-28T00:38:21.595Z,1043.34
2019-03-28T00:39:21.590Z,1043.33
2019-03-28T00:40:21.575Z,1043.35
2019-03-28T00:41:21.565Z,1043.38
2019-03-28T00:42:21.554Z,1043.42
2019-03-28T00:43:21.547Z,1043.4
2019-03-28T00:44:21.534Z,1043.4
2019-03-28T00:45:21.532Z,1043.4
2019-03-28T00:46:21.512Z,1043.4
2019-03-28T00:47:21.506Z,1043.38
2019-03-28T00:48:21.492Z,1043.34
2019-03-28T00:49:21.486Z,1043.41
2019-03-28T00:50:21.473Z,1043.36
2019-03-28T00:51:21.465Z,1043.37
2019-03-28T00:52:21.455Z,1043.39
2019-03-28T00:53:21.443Z,1043.3
2019-03-28T00:54:21.429Z,1043.33
2019-03-28T00:55:21.419Z,1043.35
2019-03-28T00:56:21.412Z,1043.37
2019-03-28T00:57:21.403Z,1043.33
2019-03-28T00:58:21.392Z,1043.33
2019-03-28T00:59:21.377Z,1043.36
2019-03-28T01:00:21.370Z,1043.27
2019-03-28T01:01:21.355Z,1043.33
2019-03-28T01:02:21.371Z,1043.32
2019-03-28T01:03:21.335Z,1043.37
2019-03-28T01:04:21.329Z,1043.31
2019-03-28T01:05:21.318Z,1043.29
2019-03-28T01:06:21.304Z,1043.3
2019-03-28T01:07:22.059Z,1043.3
2019-03-28T01:08:21.287Z,1043.37
2019-03-28T01:09:21.277Z,1043.36
2019-03-28T01:10:21.264Z,1043.38
2019-03-28T01:11:21.250Z,1043.36
2019-03-28T01:12:21.307Z,1043.41
2019-03-28T01:13:21.235Z,1043.41
2019-03-28T01:14:21.225Z,1043.37
2019-03-28T01:15:21.210Z,1043.24
2019-03-28T01:16:21.209Z,1043.36
2019-03-28T01:17:21.191Z,1043.35
2019-03-28T01:18:21.184Z,1043.36
2019-03-28T01:19:21.168Z,1043.37
2019-03-28T01:20:21.162Z,1043.4
2019-03-28T01:21:21.148Z,1043.37
2019-03-28T01:22:21.140Z,1043.38
2019-03-28T01:23:21.273Z,1043.35
2019-03-28T01:24:21.116Z,1043.38
2019-03-28T01:25:21.106Z,1043.35
2019-03-28T01:26:21.100Z,1043.35
2019-03-28T01:27:21.088Z,1043.33
2019-03-28T01:28:21.077Z,1043.36
2019-03-28T01:29:21.064Z,1043.33
2019-03-28T01:30:21.138Z,1043.35
2019-03-28T01:31:21.044Z,1043.37
2019-03-28T01:32:21.042Z,1043.35
2019-03-28T01:33:21.022Z,1043.35
2019-03-28T01:34:21.017Z,1043.34
2019-03-28T01:35:21.002Z,1043.37
2019-03-28T01:36:20.996Z,1043.36
2019-03-28T01:37:20.980Z,1043.35
2019-03-28T01:38:20.975Z,1043.33
2019-03-28T01:39:20.960Z,1043.34
2019-03-28T01:40:20.949Z,1043.27
2019-03-28T01:41:20.939Z,1043.27
2019-03-28T01:42:20.934Z,1043.26
2019-03-28T01:43:20.919Z,1043.28
2019-03-28T01:44:20.911Z,1043.22
2019-03-28T01:45:20.905Z,1043.21
2019-03-28T01:46:20.891Z,1043.18
2019-03-28T01:47:20.879Z,1043.2
2019-03-28T01:48:20.872Z,1043.22
2019-03-28T01:49:20.855Z,1043.19
2019-03-28T01:50:20.850Z,1043.15
2019-03-28T01:51:20.841Z,1043.19
2019-03-28T01:52:21.332Z,1043.19
2019-03-28T01:53:20.814Z,1043.13
2019-03-28T01:54:20.807Z,1043.2
2019-03-28T01:55:21.198Z,1043.19
2019-03-28T01:56:20.786Z,1043.17
2019-03-28T01:57:20.776Z,1043.2
2019-03-28T01:58:20.762Z,1043.16
2019-03-28T01:59:21.200Z,1043.16
2019-03-28T02:00:20.745Z,1043.17
2019-03-28T02:01:20.734Z,1043.12
2019-03-28T02:02:20.724Z,1043.16
2019-03-28T02:03:20.709Z,1043.17
2019-03-28T02:04:20.704Z,1043.14
2019-03-28T02:05:20.689Z,1043.14
2019-03-28T02:06:20.683Z,1043.15
2019-03-28T02:07:20.668Z,1043.13
2019-03-28T02:08:20.663Z,1043.13
2019-03-28T02:09:20.648Z,1043.12
2019-03-28T02:10:20.670Z,1043.12
2019-03-28T02:11:20.626Z,1043.13
2019-03-28T02:12:20.618Z,1043.17
2019-03-28T02:13:20.605Z,1043.14
2019-03-28T02:14:20.599Z,1043.1
2019-03-28T02:15:20.589Z,1043.15
2019-03-28T02:16:21.405Z,1043.12
2019-03-28T02:17:20.564Z,1043.11
2019-03-28T02:18:20.554Z,1043.14
2019-03-28T02:19:20.549Z,1043.13
2019-03-28T02:20:20.533Z,1043.11
2019-03-28T02:21:20.523Z,1043.1
2019-03-28T02:22:20.517Z,1043.15
2019-03-28T02:23:20.502Z,1043.15
2019-03-28T02:24:20.495Z,1043.15
2019-03-28T02:25:20.483Z,1043.2
2019-03-28T02:26:20.477Z,1043.22
2019-03-28T02:27:24.124Z,1043.24
2019-03-28T02:28:20.450Z,1043.2
2019-03-28T02:29:20.442Z,1043.19
2019-03-28T02:30:20.434Z,1043.2
2019-03-28T02:31:20.424Z,1043.2
2019-03-28T02:32:20.413Z,1043.15
2019-03-28T02:33:20.401Z,1043.2
2019-03-28T02:34:20.389Z,1043.22
2019-03-28T02:35:20.383Z,1043.26
2019-03-28T02:36:20.368Z,1043.24
2019-03-28T02:37:20.364Z,1043.26
2019-03-28T02:38:20.348Z,1043.23
2019-03-28T02:39:20.341Z,1043.21
2019-03-28T02:40:20.326Z,1043.23
2019-03-28T02:41:20.320Z,1043.24
2019-03-28T02:42:20.307Z,1043.3
2019-03-28T02:43:20.323Z,1043.27
2019-03-28T02:44:20.290Z,1043.3
2019-03-28T02:45:20.281Z,1043.35
2019-03-28T02:46:20.266Z,1043.33
2019-03-28T02:47:20.259Z,1043.39
2019-03-28T02:48:20.244Z,1043.45
2019-03-28T02:49:20.238Z,1043.42
2019-03-28T02:50:20.222Z,1043.42
2019-03-28T02:51:20.216Z,1043.46
2019-03-28T02:52:20.202Z,1043.37
2019-03-28T02:53:20.196Z,1043.4
2019-03-28T02:54:20.179Z,1043.41
2019-03-28T02:55:20.175Z,1043.41
2019-03-28T02:56:20.161Z,1043.44
2019-03-28T02:57:20.153Z,1043.45
2019-03-28T02:58:20.139Z,1043.43
2019-03-28T02:59:20.135Z,1043.4
2019-03-28T03:00:20.894Z,1043.38
2019-03-28T03:01:20.113Z,1043.39
2019-03-28T03:02:20.099Z,1043.39
2019-03-28T03:03:20.096Z,1043.39
2019-03-28T03:04:20.083Z,1043.38
2019-03-28T03:05:20.073Z,1043.35
2019-03-28T03:06:20.063Z,1043.37
2019-03-28T03:07:20.048Z,1043.37
2019-03-28T03:08:20.041Z,1043.4
2019-03-28T03:09:20.025Z,1043.34
2019-03-28T03:10:20.020Z,1043.35
2019-03-28T03:11:20.011Z,1043.31
2019-03-28T03:12:20.000Z,1043.35
2019-03-28T03:13:20.113Z,1043.33
2019-03-28T03:14:19.975Z,1043.37
2019-03-28T03:15:19.967Z,1043.33
2019-03-28T03:16:19.959Z,1043.36
2019-03-28T03:17:19.948Z,1043.39
2019-03-28T03:18:21.496Z,1043.38
2019-03-28T03:19:19.921Z,1043.33
2019-03-28T03:20:19.916Z,1043.34
2019-03-28T03:21:19.907Z,1043.3
2019-03-28T03:22:19.895Z,1043.3
2019-03-28T03:23:20.141Z,1043.34
2019-03-28T03:24:19.875Z,1043.39
2019-03-28T03:25:19.861Z,1043.38
2019-03-28T03:26:19.852Z,1043.35
2019-03-28T03:27:19.837Z,1043.33
2019-03-28T03:28:19.831Z,1043.36
2019-03-28T03:29:19.822Z,1043.32
2019-03-28T03:30:19.810Z,1043.34
2019-03-28T03:31:21.100Z,1043.37
2019-03-28T03:32:19.797Z,1043.39
2019-03-28T03:33:19.777Z,1043.38
2019-03-28T03:34:19.770Z,1043.4
2019-03-28T03:35:19.760Z,1043.36
2019-03-28T03:36:19.743Z,1043.36
2019-03-28T03:37:19.734Z,1043.38
2019-03-28T03:38:19.743Z,1043.38
2019-03-28T03:39:19.724Z,1043.39
2019-03-28T03:40:19.708Z,1043.45
2019-03-28T03:41:19.726Z,1043.44
2019-03-28T03:42:19.686Z,1043.48
2019-03-28T03:43:19.671Z,1043.49
2019-03-28T03:44:19.665Z,1043.48
2019-03-28T03:45:19.656Z,1043.49
2019-03-28T03:46:19.745Z,1043.47
2019-03-28T03:47:19.898Z,1043.46
2019-03-28T03:48:19.636Z,1043.34
2019-03-28T03:49:19.642Z,1043.46
2019-03-28T03:50:19.605Z,1043.49
2019-03-28T03:51:19.593Z,1043.42
2019-03-28T03:52:19.578Z,1043.43
2019-03-28T03:53:19.567Z,1043.42
2019-03-28T03:54:19.557Z,1043.39
2019-03-28T03:55:19.555Z,1043.4
2019-03-28T03:56:19.536Z,1043.47
2019-03-28T03:57:19.539Z,1043.41
2019-03-28T03:58:19.522Z,1043.38
2019-03-28T03:59:19.509Z,1043.35
2019-03-28T04:00:19.493Z,1043.41
2019-03-28T04:01:19.482Z,1043.46
2019-03-28T04:02:19.473Z,1043.43
2019-03-28T04:03:19.461Z,1043.43
2019-03-28T04:04:19.451Z,1043.42
2019-03-28T04:05:19.441Z,1043.45
2019-03-28T04:06:19.431Z,1043.4
2019-03-28T04:07:19.420Z,1043.47
2019-03-28T04:08:19.409Z,1043.42
2019-03-28T04:09:19.401Z,1043.43
2019-03-28T04:10:19.390Z,1043.43
2019-03-28T04:11:19.377Z,1043.43
2019-03-28T04:12:19.372Z,1043.46
2019-03-28T04:13:19.368Z,1043.45
2019-03-28T04:14:19.349Z,1043.43
2019-03-28T04:15:19.337Z,1043.44
2019-03-28T04:16:19.330Z,1043.41
2019-03-28T04:17:19.316Z,1043.45
2019-03-28T04:18:21.983Z,1043.43
2019-03-28T04:19:19.302Z,1043.44
2019-03-28T04:20:19.298Z,1043.45
2019-03-28T04:21:19.291Z,1043.42
2019-03-28T04:22:19.278Z,1043.44
2019-03-28T04:23:19.261Z,1043.44
2019-03-28T04:24:19.257Z,1043.41
2019-03-28T04:25:19.247Z,1043.4
2019-03-28T04:26:19.238Z,1043.47
2019-03-28T04:27:19.216Z,1043.45
2019-03-28T04:28:30.643Z,1043.41
2019-03-28T04:29:19.203Z,1043.4
2019-03-28T04:30:19.184Z,1043.43
2019-03-28T04:31:19.180Z,1043.42
2019-03-28T04:32:19.166Z,1043.42
2019-03-28T04:33:19.164Z,1043.43
2019-03-28T04:34:19.143Z,1043.42
2019-03-28T04:35:19.138Z,1043.44
2019-03-28T04:36:19.125Z,1043.44
2019-03-28T04:37:19.117Z,1043.44
2019-03-28T04:38:19.112Z,1043.45
2019-03-28T04:39:19.098Z,1043.49
2019-03-28T04:40:19.089Z,1043.49
2019-03-28T04:41:19.084Z,1043.48
2019-03-28T04:42:19.068Z,1043.51
2019-03-28T04:43:19.049Z,1043.51
2019-03-28T04:44:19.056Z,1043.58
2019-03-28T04:45:19.037Z,1043.55
2019-03-28T04:46:19.023Z,1043.55
2019-03-28T04:47:19.012Z,1043.55
2019-03-28T04:48:19.002Z,1043.56
2019-03-28T04:49:18.991Z,1043.55
2019-03-28T04:50:18.981Z,1043.54
2019-03-28T04:51:18.966Z,1043.55
2019-03-28T04:52:19.406Z,1043.52
2019-03-28T04:53:18.946Z,1043.5
2019-03-28T04:54:18.940Z,1043.5
2019-03-28T04:55:18.926Z,1043.48
2019-03-28T04:56:18.925Z,1043.47
2019-03-28T04:57:18.910Z,1043.48
2019-03-28T04:58:21.553Z,1043.42
2019-03-28T04:59:18.885Z,1043.41
2019-03-28T05:00:18.881Z,1043.4
2019-03-28T05:01:18.864Z,1043.37
2019-03-28T05:02:18.862Z,1043.34
2019-03-28T05:03:18.844Z,1043.34
2019-03-28T05:04:21.023Z,1043.34
2019-03-28T05:05:18.822Z,1043.35
2019-03-28T05:06:18.817Z,1043.34
2019-03-28T05:07:18.803Z,1043.33
2019-03-28T05:08:18.797Z,1043.25
2019-03-28T05:09:18.786Z,1043.18
2019-03-28T05:10:18.774Z,1043.19
2019-03-28T05:11:18.763Z,1043.18
2019-03-28T05:12:18.756Z,1043.18
2019-03-28T05:13:18.746Z,1043.14
2019-03-28T05:14:18.738Z,1043.14
2019-03-28T05:15:20.300Z,1043.13
2019-03-28T05:16:18.716Z,1043.17
2019-03-28T05:17:18.700Z,1043.19
2019-03-28T05:18:18.695Z,1043.23
2019-03-28T05:19:18.682Z,1043.23
2019-03-28T05:20:18.677Z,1043.22
2019-03-28T05:21:18.665Z,1043.26
2019-03-28T05:22:18.651Z,1043.27
2019-03-28T05:23:18.645Z,1043.26
2019-03-28T05:24:18.635Z,1043.25
2019-03-28T05:25:18.626Z,1043.25
2019-03-28T05:26:18.612Z,1043.25
2019-03-28T05:27:18.601Z,1043.29
2019-03-28T05:28:18.598Z,1043.25
2019-03-28T05:29:18.586Z,1043.3
2019-03-28T05:30:18.576Z,1043.31
2019-03-28T05:31:18.607Z,1043.37
2019-03-28T05:32:18.556Z,1043.37
2019-03-28T05:33:18.542Z,1043.39
2019-03-28T05:34:18.536Z,1043.37
2019-03-28T05:35:18.522Z,1043.35
2019-03-28T05:36:18.705Z,1043.3
2019-03-28T05:37:18.502Z,1043.33
2019-03-28T05:38:18.496Z,1043.31
2019-03-28T05:39:18.507Z,1043.31
2019-03-28T05:40:18.472Z,1043.31
2019-03-28T05:41:18.463Z,1043.33
2019-03-28T05:42:18.456Z,1043.32
2019-03-28T05:43:18.447Z,1043.26
2019-03-28T05:44:18.434Z,1043.31
2019-03-28T05:45:18.423Z,1043.28
2019-03-28T05:46:18.417Z,1043.26
2019-03-28T05:47:18.403Z,1043.25
2019-03-28T05:48:18.399Z,1043.26
2019-03-28T05:49:18.383Z,1043.3
2019-03-28T05:50:18.379Z,1043.31
2019-03-28T05:51:18.364Z,1043.33
2019-03-28T05:52:18.362Z,1043.32
2019-03-28T05:53:18.346Z,1043.33
2019-03-28T05:54:18.338Z,1043.34
2019-03-28T05:55:18.326Z,1043.34
2019-03-28T05:56:18.319Z,1043.34
2019-03-28T05:57:18.314Z,1043.38
2019-03-28T05:58:18.299Z,1043.37
2019-03-28T05:59:18.318Z,1043.43
2019-03-28T06:00:18.275Z,1043.48
2019-03-28T06:01:18.266Z,1043.49
2019-03-28T06:02:18.259Z,1043.57
2019-03-28T06:03:18.251Z,1043.58
2019-03-28T06:04:18.236Z,1043.65
2019-03-28T06:05:18.230Z,1043.68
2019-03-28T06:06:18.427Z,1043.72
2019-03-28T06:07:18.219Z,1043.73
2019-03-28T06:08:18.197Z,1043.8
2019-03-28T06:09:18.191Z,1043.81
2019-03-28T06:10:18.178Z,1043.85
2019-03-28T06:11:18.172Z,1043.86
2019-03-28T06:12:19.113Z,1043.89
2019-03-28T06:13:18.151Z,1043.94
2019-03-28T06:14:18.142Z,1043.95
2019-03-28T06:15:18.133Z,1044.03
2019-03-28T06:16:18.120Z,1044.03
2019-03-28T06:17:18.110Z,1044.06
2019-03-28T06:18:18.100Z,1044.1
2019-03-28T06:19:18.094Z,1044.09
2019-03-28T06:20:18.081Z,1044.05
2019-03-28T06:21:18.075Z,1044.06
2019-03-28T06:22:18.060Z,1043.98
2019-03-28T06:23:18.055Z,1043.97
2019-03-28T06:24:18.040Z,1043.94
2019-03-28T06:25:18.039Z,1043.96
2019-03-28T06:26:18.021Z,1043.94
2019-03-28T06:27:18.020Z,1043.97
2019-03-28T06:28:18.005Z,1043.94
2019-03-28T06:29:23.488Z,1043.97
2019-03-28T06:30:18.406Z,1044.01
2019-03-28T06:31:17.972Z,1044
2019-03-28T06:32:17.967Z,1043.99
2019-03-28T06:33:17.957Z,1044.01
2019-03-28T06:34:17.946Z,1044.04
2019-03-28T06:35:18.362Z,1044.04
2019-03-28T06:36:17.927Z,1044.05
2019-03-28T06:37:17.918Z,1044.03
2019-03-28T06:38:17.903Z,1044.04
2019-03-28T06:39:17.902Z,1044.07
2019-03-28T06:40:17.890Z,1044.09
2019-03-28T06:41:17.878Z,1044.12
2019-03-28T06:42:17.866Z,1044.09
2019-03-28T06:43:17.859Z,1044.06
2019-03-28T06:44:17.848Z,1044.05
2019-03-28T06:45:17.839Z,1044.06
2019-03-28T06:46:17.826Z,1044.08
2019-03-28T06:47:20.725Z,1044.07
2019-03-28T06:48:17.810Z,1044.03
2019-03-28T06:49:17.802Z,1044.04
2019-03-28T06:50:17.790Z,1044.02
2019-03-28T06:51:17.781Z,1044.02
2019-03-28T06:52:17.771Z,1044.05
2019-03-28T06:53:17.768Z,1044.01
2019-03-28T06:54:17.749Z,1043.98
2019-03-28T06:55:17.750Z,1044.01
2019-03-28T06:56:17.727Z,1044.03
2019-03-28T06:57:18.972Z,1044.1
2019-03-28T06:58:17.709Z,1044.07
2019-03-28T06:59:17.705Z,1044.1
2019-03-28T07:00:17.696Z,1044.09
2019-03-28T07:01:17.686Z,1044.1
2019-03-28T07:02:17.671Z,1044.2
2019-03-28T07:03:17.667Z,1044.18
2019-03-28T07:04:17.660Z,1044.18
2019-03-28T07:05:17.644Z,1044.21
2019-03-28T07:06:17.634Z,1044.21
2019-03-28T07:07:18.536Z,1044.25
2019-03-28T07:08:17.615Z,1044.26
2019-03-28T07:09:18.279Z,1044.23
2019-03-28T07:10:17.596Z,1044.24
2019-03-28T07:11:17.591Z,1044.23
2019-03-28T07:12:18.381Z,1044.27
2019-03-28T07:13:17.572Z,1044.27
2019-03-28T07:14:17.559Z,1044.3
2019-03-28T07:15:17.555Z,1044.29
2019-03-28T07:16:17.544Z,1044.25
2019-03-28T07:17:17.533Z,1044.2
2019-03-28T07:18:17.520Z,1044.2
2019-03-28T07:19:17.511Z,1044.16
2019-03-28T07:20:17.505Z,1044.17
2019-03-28T07:21:18.236Z,1044.15
2019-03-28T07:22:17.487Z,1044.11
2019-03-28T07:23:17.473Z,1044.11
2019-03-28T07:24:17.467Z,1044.08
2019-03-28T07:25:17.454Z,1044.04
2019-03-28T07:26:17.450Z,1044.01
2019-03-28T07:27:17.565Z,1044.01
2019-03-28T07:28:17.430Z,1044.03
2019-03-28T07:29:17.421Z,1044.04
2019-03-28T07:30:17.407Z,1044.03
2019-03-28T07:31:17.402Z,1044.03
2019-03-28T07:32:17.392Z,1044.02
2019-03-28T07:33:17.383Z,1044.02
2019-03-28T07:34:17.372Z,1044.05
2019-03-28T07:35:17.361Z,1044.02
2019-03-28T07:36:17.356Z,1044.01
2019-03-28T07:37:17.347Z,1044.02
2019-03-28T07:38:17.339Z,1043.92
2019-03-28T07:39:19.026Z,1043.88
2019-03-28T07:40:17.319Z,1043.82
2019-03-28T07:41:17.310Z,1043.71
2019-03-28T07:42:17.301Z,1043.67
2019-03-28T07:43:17.289Z,1043.59
2019-03-28T07:44:17.285Z,1043.58
2019-03-28T07:45:17.271Z,1043.53
2019-03-28T07:46:17.266Z,1043.44
2019-03-28T07:47:17.252Z,1043.42
2019-03-28T07:48:17.244Z,1043.42
2019-03-28T07:49:17.267Z,1043.42
2019-03-28T07:50:17.237Z,1043.38
2019-03-28T07:51:17.230Z,1043.36
2019-03-28T07:52:19.944Z,1043.38
2019-03-28T07:53:19.665Z,1043.36
2019-03-28T07:54:17.201Z,1043.28
2019-03-28T07:55:17.189Z,1043.2
2019-03-28T07:56:17.183Z,1043.15
2019-03-28T07:57:17.172Z,1043.15
2019-03-28T07:58:17.186Z,1043.11
2019-03-28T07:59:17.153Z,1043.09
2019-03-28T08:00:17.148Z,1043.09
2019-03-28T08:01:18.163Z,1043.1
2019-03-28T08:02:17.137Z,1043.13
2019-03-28T08:03:17.125Z,1043.12
2019-03-28T08:04:17.112Z,1043.16
2019-03-28T08:05:17.122Z,1043.26
2019-03-28T08:06:17.108Z,1043.2
2019-03-28T08:07:17.190Z,1043.26
2019-03-28T08:08:17.081Z,1043.2
2019-03-28T08:09:17.612Z,1043.15
2019-03-28T08:10:17.070Z,1043.11
2019-03-28T08:11:17.091Z,1042.95
2019-03-28T08:12:22.733Z,1042.91
2019-03-28T08:13:17.045Z,1042.77
2019-03-28T08:14:17.033Z,1042.69
2019-03-28T08:15:17.028Z,1042.69
2019-03-28T08:16:17.017Z,1042.64
2019-03-28T08:17:17.014Z,1042.57
2019-03-28T08:18:17.005Z,1042.57
2019-03-28T08:19:16.998Z,1042.6
2019-03-28T08:20:16.990Z,1042.62
2019-03-28T08:21:17.004Z,1042.61
2019-03-28T08:22:16.974Z,1042.62
2019-03-28T08:23:16.968Z,1042.66
2019-03-28T08:24:16.956Z,1042.74
2019-03-28T08:25:16.950Z,1042.81
2019-03-28T08:26:16.939Z,1042.77
2019-03-28T08:27:16.940Z,1042.77
2019-03-28T08:28:16.927Z,1042.83
2019-03-28T08:29:16.923Z,1042.86
2019-03-28T08:30:19.371Z,1042.79
2019-03-28T08:31:16.908Z,1042.8
2019-03-28T08:32:16.896Z,1042.78
2019-03-28T08:33:16.948Z,1042.83
2019-03-28T08:34:16.885Z,1042.87
2019-03-28T08:35:16.873Z,1042.85
2019-03-28T08:36:16.868Z,1042.84
2019-03-28T08:37:16.857Z,1042.79
2019-03-28T08:38:16.861Z,1042.77
2019-03-28T08:39:16.850Z,1042.66
2019-03-28T08:40:16.836Z,1042.57
2019-03-28T08:41:16.830Z,1042.5
2019-03-28T08:42:16.821Z,1042.47
2019-03-28T08:43:16.818Z,1042.47
2019-03-28T08:44:16.808Z,1042.33
2019-03-28T08:45:16.801Z,1042.24
2019-03-28T08:46:16.797Z,1042.27
2019-03-28T08:47:16.785Z,1042.18
2019-03-28T08:48:16.781Z,1042.21
2019-03-28T08:49:16.770Z,1042.18
2019-03-28T08:50:16.767Z,1042.12
2019-03-28T08:51:16.757Z,1042.02
2019-03-28T08:52:16.749Z,1042.07
2019-03-28T08:53:16.749Z,1042.07
2019-03-28T08:54:16.740Z,1041.86
2019-03-28T08:55:16.733Z,1041.66
2019-03-28T08:56:16.722Z,1041.62
2019-03-28T08:57:16.718Z,1041.61
2019-03-28T08:58:16.713Z,1041.53
2019-03-28T08:59:16.707Z,1041.54
2019-03-28T09:00:17.316Z,1041.52
2019-03-28T09:01:16.695Z,1041.5
2019-03-28T09:02:16.684Z,1041.5
2019-03-28T09:03:16.682Z,1041.59
2019-03-28T09:04:16.673Z,1041.55
2019-03-28T09:05:16.671Z,1041.61
2019-03-28T09:06:17.162Z,1041.71
2019-03-28T09:07:17.456Z,1041.84
2019-03-28T09:08:16.652Z,1041.95
2019-03-28T09:09:16.646Z,1042.06
2019-03-28T09:10:16.640Z,1042.22
2019-03-28T09:11:16.633Z,1042.3
2019-03-28T09:12:16.625Z,1042.35
2019-03-28T09:13:16.623Z,1042.37
2019-03-28T09:14:16.614Z,1042.43
2019-03-28T09:15:16.609Z,1042.5
2019-03-28T09:16:16.603Z,1042.53
2019-03-28T09:17:16.597Z,1042.56
2019-03-28T09:18:16.586Z,1042.54
2019-03-28T09:19:16.585Z,1042.57
2019-03-28T09:20:16.574Z,1042.6
2019-03-28T09:21:16.573Z,1042.65
2019-03-28T09:22:16.563Z,1042.68
2019-03-28T09:23:16.559Z,1042.69
2019-03-28T09:24:16.553Z,1042.67
2019-03-28T09:25:16.547Z,1042.69
2019-03-28T09:26:16.536Z,1042.68
2019-03-28T09:27:16.530Z,1042.71
2019-03-28T09:28:16.527Z,1042.73
2019-03-28T09:29:16.520Z,1042.74
2019-03-28T09:30:16.513Z,1042.73
2019-03-28T09:31:20.004Z,1042.7
2019-03-28T09:32:16.500Z,1042.7
2019-03-28T09:33:16.489Z,1042.7
2019-03-28T09:34:16.502Z,1042.74
2019-03-28T09:35:16.475Z,1042.72
2019-03-28T09:36:16.473Z,1042.68
2019-03-28T09:37:16.466Z,1042.67
2019-03-28T09:38:16.456Z,1042.64
2019-03-28T09:39:16.452Z,1042.68
2019-03-28T09:40:16.445Z,1042.64
2019-03-28T09:41:16.442Z,1042.63
2019-03-28T09:42:16.428Z,1042.6
2019-03-28T09:43:16.420Z,1042.57
2019-03-28T09:44:16.420Z,1042.55
2019-03-28T09:45:16.411Z,1042.55
2019-03-28T09:46:16.403Z,1042.49
2019-03-28T09:47:16.392Z,1042.5
2019-03-28T09:48:16.397Z,1042.51
2019-03-28T09:49:16.380Z,1042.47
2019-03-28T09:50:16.376Z,1042.51
2019-03-28T09:51:16.365Z,1042.49
2019-03-28T09:52:16.362Z,1042.48
2019-03-28T09:53:16.351Z,1042.55
2019-03-28T09:54:16.351Z,1042.59
2019-03-28T09:55:18.822Z,1042.62
2019-03-28T09:56:16.335Z,1042.59
2019-03-28T09:57:16.324Z,1042.59
2019-03-28T09:58:16.323Z,1042.58
2019-03-28T09:59:16.314Z,1042.57
2019-03-28T10:00:16.304Z,1042.64
2019-03-28T10:01:16.295Z,1042.63
2019-03-28T10:02:16.294Z,1042.5
2019-03-28T10:03:16.283Z,1042.53
2019-03-28T10:04:16.281Z,1042.38
2019-03-28T10:05:16.275Z,1042.21
2019-03-28T10:06:16.453Z,1041.85
2019-03-28T10:07:16.256Z,1041.44
2019-03-28T10:08:16.255Z,1041.29
2019-03-28T10:09:16.243Z,1041.33
2019-03-28T10:10:16.241Z,1041.46
2019-03-28T10:11:16.231Z,1041.61
2019-03-28T10:12:16.224Z,1041.67
2019-03-28T10:13:16.218Z,1041.64
2019-03-28T10:14:16.216Z,1041.43
2019-03-28T10:15:16.211Z,1041.27
2019-03-28T10:16:16.200Z,1041.13
2019-03-28T10:17:16.247Z,1041.02
2019-03-28T10:18:16.189Z,1040.9
2019-03-28T10:19:16.187Z,1040.82
2019-03-28T10:20:16.178Z,1040.62
2019-03-28T10:21:16.176Z,1040.37
2019-03-28T10:22:16.167Z,1040.38
2019-03-28T10:23:16.165Z,1040.55
2019-03-28T10:24:16.157Z,1040.73
2019-03-28T10:25:16.155Z,1040.82
2019-03-28T10:26:16.146Z,1040.89
2019-03-28T10:27:19.020Z,1041
2019-03-28T10:28:16.137Z,1041.17
2019-03-28T10:29:16.131Z,1041.33
2019-03-28T10:30:16.130Z,1041.41
2019-03-28T10:31:17.033Z,1041.42
2019-03-28T10:32:16.116Z,1041.46
2019-03-28T10:33:16.115Z,1041.44
2019-03-28T10:34:16.106Z,1041.48
2019-03-28T10:35:16.105Z,1041.57
2019-03-28T10:36:16.097Z,1041.61
2019-03-28T10:37:16.095Z,1041.66
2019-03-28T10:38:16.085Z,1041.73
2019-03-28T10:39:16.084Z,1041.77
2019-03-28T10:40:16.076Z,1041.81
2019-03-28T10:41:16.074Z,1041.82
2019-03-28T10:42:16.063Z,1041.89
2019-03-28T10:43:16.083Z,1042
2019-03-28T10:44:16.115Z,1042.06
2019-03-28T10:45:16.052Z,1042.1
2019-03-28T10:46:16.043Z,1042.22
2019-03-28T10:47:16.037Z,1042.3
2019-03-28T10:48:16.042Z,1042.34
2019-03-28T10:49:16.030Z,1042.32
2019-03-28T10:50:16.024Z,1042.37
2019-03-28T10:51:16.015Z,1042.45
2019-03-28T10:52:16.012Z,1042.51
2019-03-28T10:53:16.008Z,1042.5
2019-03-28T10:54:20.267Z,1042.48
2019-03-28T10:55:16.589Z,1042.51
2019-03-28T10:56:21.719Z,1042.51
2019-03-28T10:57:29.205Z,1042.48
2019-03-28T10:58:19.599Z,1042.55
2019-03-28T10:59:22.998Z,1042.52
2019-03-28T11:00:23.713Z,1042.52
2019-03-28T11:01:16.767Z,1042.53
2019-03-28T11:02:15.951Z,1042.58
2019-03-28T11:03:15.944Z,1042.57
2019-03-28T11:04:15.943Z,1042.46
2019-03-28T11:05:15.938Z,1042.36
2019-03-28T11:06:15.931Z,1042.33
2019-03-28T11:07:15.921Z,1042.32
2019-03-28T11:08:16.613Z,1042.13
2019-03-28T11:09:15.909Z,1042.09
2019-03-28T11:10:15.907Z,1042.08
2019-03-28T11:11:15.896Z,1042.06
2019-03-28T11:12:15.937Z,1042.13
2019-03-28T11:13:15.897Z,1042.25
2019-03-28T11:14:15.882Z,1042.3
2019-03-28T11:15:15.874Z,1042.36
2019-03-28T11:16:15.867Z,1042.45
2019-03-28T11:17:15.869Z,1042.49
2019-03-28T11:18:15.858Z,1042.55
2019-03-28T11:19:17.397Z,1042.54
2019-03-28T11:20:15.847Z,1042.61
2019-03-28T11:21:15.843Z,1042.68
2019-03-28T11:22:15.834Z,1042.71
2019-03-28T11:23:15.824Z,1042.78
2019-03-28T11:24:15.823Z,1042.83
2019-03-28T11:25:15.812Z,1042.9
2019-03-28T11:26:15.810Z,1042.95
2019-03-28T11:27:15.800Z,1042.9
2019-03-28T11:28:16.040Z,1042.88
2019-03-28T11:29:15.787Z,1042.9
2019-03-28T11:30:18.291Z,1042.91
2019-03-28T11:31:15.775Z,1042.89
2019-03-28T11:32:15.766Z,1042.83
2019-03-28T11:33:15.762Z,1042.8
2019-03-28T11:34:15.760Z,1042.76
2019-03-28T11:35:15.754Z,1042.74
2019-03-28T11:36:15.742Z,1042.71
2019-03-28T11:37:25.694Z,1042.72
2019-03-28T11:38:15.737Z,1042.72
2019-03-28T11:39:15.729Z,1042.76
2019-03-28T11:40:15.718Z,1042.7
2019-03-28T11:41:15.716Z,1042.69
2019-03-28T11:42:15.704Z,1042.61
2019-03-28T11:43:15.702Z,1042.57
2019-03-28T11:44:15.694Z,1042.51
2019-03-28T11:45:15.686Z,1042.48
2019-03-28T11:46:15.684Z,1042.49
2019-03-28T11:47:15.674Z,1042.49
2019-03-28T11:48:15.668Z,1042.41
2019-03-28T11:49:15.662Z,1042.34
2019-03-28T11:50:17.189Z,1042.18
2019-03-28T11:51:15.653Z,1042.07
2019-03-28T11:52:15.643Z,1041.91
2019-03-28T11:53:15.638Z,1041.83
2019-03-28T11:54:15.631Z,1041.84
2019-03-28T11:55:15.701Z,1041.9
2019-03-28T11:56:15.621Z,1042.01
2019-03-28T11:57:16.010Z,1042.1
2019-03-28T11:58:15.620Z,1042.2
2019-03-28T11:59:15.604Z,1042.32
2019-03-28T12:00:15.602Z,1042.46
2019-03-28T12:01:15.592Z,1042.6
2019-03-28T12:02:19.930Z,1042.65
2019-03-28T12:03:15.586Z,1042.65
2019-03-28T12:04:15.574Z,1042.77
2019-03-28T12:05:15.568Z,1042.83
2019-03-28T12:06:15.566Z,1042.9
2019-03-28T12:07:15.561Z,1043.01
2019-03-28T12:08:15.551Z,1043.07